Time;durP1;ratioP1;P1;durP2;ratioP2;P2;SDS_P1;SDS_P2;PMS_P1;PMS_P2;Temp;Humidity;BMP_temperature;BMP_pressure;BME280_temperature;BME280_humidity;BME280_pressure;Samples;Min_cycle;Max_cycle;Signal;HPM_P1;HPM_P2
2021/10/12 00:00:47;;;;;;;5.00;3.08;;;;;;;;;;2094736;28;20629;-59
2021/10/12 00:01:47;;;;;;;7.10;4.13;;;;;;;;;;2097293;28;20175;-58
2021/10/12 00:02:48;;;;;;;4.97;3.83;;;;;;;;;;2094169;28;20174;-59
2021/10/12 00:03:48;;;;;;;7.50;4.15;;;;;;;;;;2089010;28;20209;-60
2021/10/12 00:04:48;;;;;;;5.53;3.90;;;;;;;;;;2094616;28;20163;-58
2021/10/12 00:05:48;;;;;;;6.20;3.70;;;;;;;;;;2097243;28;20730;-58
2021/10/12 00:06:49;;;;;;;7.85;3.83;;;;;;;;;;2096461;28;20194;-59
2021/10/12 00:07:49;;;;;;;8.05;3.40;;;;;;;;;;2096869;28;20190;-58
2021/10/12 00:08:49;;;;;;;6.07;4.03;;;;;;;;;;2098217;28;20270;-61
2021/10/12 00:09:49;;;;;;;8.02;4.20;;;;;;;;;;2093965;28;20217;-59
2021/10/12 00:10:50;;;;;;;6.75;3.75;;;;;;;;;;2097793;28;20207;-59
2021/10/12 00:11:52;;;;;;;4.47;3.45;;;;;;;;;;2094127;28;20536;-58
2021/10/12 00:12:52;;;;;;;8.52;3.47;;;;;;;;;;2099112;28;20240;-60
2021/10/12 00:13:52;;;;;;;6.47;4.18;;;;;;;;;;2098401;28;20163;-57
2021/10/12 00:14:53;;;;;;;7.75;3.45;;;;;;;;;;2099405;28;20253;-55
2021/10/12 00:15:53;;;;;;;7.20;3.90;;;;;;;;;;2096463;28;20170;-54
2021/10/12 00:16:54;;;;;;;6.22;3.30;;;;;;;;;;2099182;28;20166;-55
2021/10/12 00:17:54;;;;;;;6.50;3.92;;;;;;;;;;2098532;28;20163;-58
2021/10/12 00:18:54;;;;;;;9.50;4.00;;;;;;;;;;2097816;28;20174;-56
2021/10/12 00:19:54;;;;;;;4.60;3.45;;;;;;;;;;2092691;28;20173;-60
2021/10/12 00:20:55;;;;;;;5.55;3.42;;;;;;;;;;2098782;28;20179;-56
2021/10/12 00:21:55;;;;;;;5.50;4.07;;;;;;;;;;2098775;28;20234;-53
2021/10/12 00:22:55;;;;;;;5.28;3.58;;;;;;;;;;2098532;28;20162;-57
2021/10/12 00:23:56;;;;;;;3.92;3.22;;;;;;;;;;2099208;28;20662;-57
2021/10/12 00:24:56;;;;;;;5.57;3.58;;;;;;;;;;2098172;28;20163;-56
2021/10/12 00:25:56;;;;;;;4.35;3.55;;;;;;;;;;2090450;28;20262;-61
2021/10/12 00:26:56;;;;;;;7.78;3.30;;;;;;;;;;2089558;28;20273;-58
2021/10/12 00:27:57;;;;;;;5.97;3.40;;;;;;;;;;2090245;28;20176;-58
2021/10/12 00:28:57;;;;;;;3.70;3.17;;;;;;;;;;2080825;28;20184;-57
2021/10/12 00:29:57;;;;;;;6.13;3.90;;;;;;;;;;2090483;28;20244;-55
2021/10/12 00:30:58;;;;;;;6.20;3.45;;;;;;;;;;2098069;28;20167;-58
2021/10/12 00:32:00;;;;;;;3.33;3.03;;;;;;;;;;2098572;28;20175;-61
2021/10/12 00:33:01;;;;;;;4.03;3.10;;;;;;;;;;2089844;28;20166;-59
2021/10/12 00:34:01;;;;;;;4.90;3.55;;;;;;;;;;2090238;28;20184;-63
2021/10/12 00:35:02;;;;;;;9.60;3.60;;;;;;;;;;2098319;28;20202;-57
2021/10/12 00:36:02;;;;;;;7.50;3.67;;;;;;;;;;2089611;28;20261;-60
2021/10/12 00:37:02;;;;;;;3.90;3.10;;;;;;;;;;2089835;28;20176;-58
2021/10/12 00:38:02;;;;;;;4.45;3.30;;;;;;;;;;2099663;28;20163;-54
2021/10/12 00:39:03;;;;;;;6.55;3.45;;;;;;;;;;2097432;28;20331;-54
2021/10/12 00:40:04;;;;;;;3.50;3.20;;;;;;;;;;2094254;28;20171;-63
2021/10/12 00:41:07;;;;;;;4.55;3.05;;;;;;;;;;2098044;28;20183;-62
2021/10/12 00:42:07;;;;;;;5.35;3.53;;;;;;;;;;2095004;28;20258;-62
2021/10/12 00:43:08;;;;;;;5.00;2.60;;;;;;;;;;2097855;28;20179;-58
2021/10/12 00:44:08;;;;;;;6.85;3.20;;;;;;;;;;2098333;28;20263;-60
2021/10/12 00:45:10;;;;;;;6.10;2.92;;;;;;;;;;2098498;28;20652;-59
2021/10/12 00:46:11;;;;;;;5.20;2.63;;;;;;;;;;2089739;28;20580;-59
2021/10/12 00:47:13;;;;;;;3.88;2.90;;;;;;;;;;2089424;28;20259;-59
2021/10/12 00:48:13;;;;;;;5.10;3.35;;;;;;;;;;2097292;28;20669;-58
2021/10/12 00:49:13;;;;;;;4.32;2.95;;;;;;;;;;2098057;28;20289;-59
2021/10/12 00:50:13;;;;;;;3.03;2.78;;;;;;;;;;2098313;28;20198;-63
2021/10/12 00:51:14;;;;;;;2.65;2.42;;;;;;;;;;2098118;28;20540;-59
2021/10/12 00:52:16;;;;;;;6.72;2.90;;;;;;;;;;2098613;28;20174;-63
2021/10/12 00:53:16;;;;;;;4.00;2.95;;;;;;;;;;2095208;28;20185;-60
2021/10/12 00:54:16;;;;;;;3.67;2.60;;;;;;;;;;2099245;28;20174;-58
2021/10/12 00:55:17;;;;;;;3.10;2.72;;;;;;;;;;2098475;28;20171;-55
2021/10/12 00:56:19;;;;;;;4.75;2.90;;;;;;;;;;2099023;28;20195;-56
2021/10/12 00:57:19;;;;;;;5.95;2.78;;;;;;;;;;2086448;28;20168;-60
2021/10/12 00:58:21;;;;;;;6.30;3.30;;;;;;;;;;2088737;28;20180;-59
2021/10/12 00:59:22;;;;;;;4.07;2.65;;;;;;;;;;2095189;28;20715;-60
2021/10/12 01:00:23;;;;;;;4.40;2.33;;;;;;;;;;2088783;28;20203;-61
2021/10/12 01:01:24;;;;;;;3.55;2.90;;;;;;;;;;2090238;28;20187;-56
2021/10/12 01:02:25;;;;;;;4.13;2.75;;;;;;;;;;2097718;28;20175;-55
2021/10/12 01:03:25;;;;;;;4.00;2.50;;;;;;;;;;2098747;28;20240;-59
2021/10/12 01:04:25;;;;;;;3.03;2.70;;;;;;;;;;2097109;28;20163;-58
2021/10/12 01:05:26;;;;;;;7.18;3.05;;;;;;;;;;2098834;28;20182;-59
2021/10/12 01:06:26;;;;;;;3.72;2.92;;;;;;;;;;2089576;28;20230;-57
2021/10/12 01:07:27;;;;;;;6.35;3.10;;;;;;;;;;2084303;28;20168;-59
2021/10/12 01:08:27;;;;;;;6.63;2.95;;;;;;;;;;2081447;28;20294;-61
2021/10/12 01:09:27;;;;;;;4.40;2.88;;;;;;;;;;2089517;28;20207;-59
2021/10/12 01:10:28;;;;;;;4.15;2.65;;;;;;;;;;2099003;28;20641;-62
2021/10/12 01:11:28;;;;;;;5.22;2.97;;;;;;;;;;2098143;28;20175;-61
2021/10/12 01:12:28;;;;;;;3.42;2.55;;;;;;;;;;2093368;28;20179;-58
2021/10/12 01:13:29;;;;;;;4.53;2.50;;;;;;;;;;2094589;28;20697;-58
2021/10/12 01:14:29;;;;;;;3.10;2.80;;;;;;;;;;2097605;28;20663;-55
2021/10/12 01:15:32;;;;;;;5.43;2.60;;;;;;;;;;2097897;28;20179;-61
2021/10/12 01:16:32;;;;;;;7.32;2.78;;;;;;;;;;2098144;28;20182;-57
2021/10/12 01:17:32;;;;;;;5.90;3.13;;;;;;;;;;2092339;28;20615;-57
2021/10/12 01:18:33;;;;;;;6.60;3.28;;;;;;;;;;2097954;28;20186;-60
2021/10/12 01:19:34;;;;;;;4.72;2.60;;;;;;;;;;2096784;28;20214;-58
2021/10/12 01:20:35;;;;;;;3.97;2.50;;;;;;;;;;2088751;28;20277;-60
2021/10/12 01:21:39;;;;;;;3.92;2.65;;;;;;;;;;2088371;28;20201;-62
2021/10/12 01:22:40;;;;;;;5.10;2.90;;;;;;;;;;2089980;28;20187;-56
2021/10/12 01:23:40;;;;;;;3.53;2.80;;;;;;;;;;2098485;28;20179;-60
2021/10/12 01:24:41;;;;;;;3.20;2.88;;;;;;;;;;2098825;28;20210;-60
2021/10/12 01:25:41;;;;;;;3.83;2.70;;;;;;;;;;2097701;28;20588;-58
2021/10/12 01:26:42;;;;;;;5.50;3.33;;;;;;;;;;2097899;28;20174;-57
2021/10/12 01:27:43;;;;;;;5.18;3.03;;;;;;;;;;2097779;28;20654;-62
2021/10/12 01:28:44;;;;;;;6.63;2.78;;;;;;;;;;2097392;28;20171;-58
2021/10/12 01:29:44;;;;;;;4.47;2.50;;;;;;;;;;2097558;28;20202;-60
2021/10/12 01:30:44;;;;;;;6.82;2.97;;;;;;;;;;2089986;28;20196;-64
2021/10/12 01:31:44;;;;;;;3.20;2.70;;;;;;;;;;2097428;28;20594;-63
2021/10/12 01:32:45;;;;;;;4.25;2.60;;;;;;;;;;2097977;28;20163;-61
2021/10/12 01:33:46;;;;;;;5.97;2.88;;;;;;;;;;2094794;28;20179;-60
2021/10/12 01:34:46;;;;;;;2.88;2.42;;;;;;;;;;2097652;28;20177;-60
2021/10/12 01:35:50;;;;;;;8.02;2.92;;;;;;;;;;2094127;28;20209;-57
2021/10/12 01:36:50;;;;;;;3.88;2.55;;;;;;;;;;2098133;28;20181;-58
2021/10/12 01:37:51;;;;;;;3.97;3.08;;;;;;;;;;2091270;28;20167;-64
2021/10/12 01:38:51;;;;;;;4.30;3.00;;;;;;;;;;2097821;28;20224;-61
2021/10/12 01:39:51;;;;;;;3.45;2.80;;;;;;;;;;2093216;28;20366;-61
2021/10/12 01:40:51;;;;;;;5.78;2.88;;;;;;;;;;2097779;28;20210;-58
2021/10/12 01:41:52;;;;;;;3.38;2.42;;;;;;;;;;2092457;28;20579;-59
2021/10/12 01:42:55;;;;;;;4.90;2.90;;;;;;;;;;2098157;28;20861;-59
2021/10/12 01:43:56;;;;;;;4.13;3.15;;;;;;;;;;2096549;28;20617;-61
2021/10/12 01:44:58;;;;;;;3.03;2.67;;;;;;;;;;2091168;28;20252;-56
2021/10/12 01:45:59;;;;;;;6.10;2.58;;;;;;;;;;2091803;28;20183;-63
2021/10/12 01:46:59;;;;;;;8.73;2.67;;;;;;;;;;2097589;28;20639;-59
2021/10/12 01:47:59;;;;;;;3.72;2.65;;;;;;;;;;2098122;28;20175;-60
2021/10/12 01:49:00;;;;;;;3.30;2.78;;;;;;;;;;2097247;28;20206;-60
2021/10/12 01:50:00;;;;;;;3.67;2.80;;;;;;;;;;2098015;28;20213;-60
2021/10/12 01:51:01;;;;;;;6.68;3.25;;;;;;;;;;2096775;28;20225;-58
2021/10/12 01:52:01;;;;;;;4.05;2.90;;;;;;;;;;2091627;28;20232;-55
2021/10/12 01:53:02;;;;;;;4.07;3.05;;;;;;;;;;2096944;28;20183;-60
2021/10/12 01:54:02;;;;;;;3.28;2.80;;;;;;;;;;2089459;28;20179;-61
2021/10/12 01:55:03;;;;;;;6.85;3.22;;;;;;;;;;2088886;28;20196;-59
2021/10/12 01:56:04;;;;;;;4.88;2.88;;;;;;;;;;2098324;28;20258;-57
2021/10/12 01:57:04;;;;;;;6.05;3.08;;;;;;;;;;2097626;28;20159;-58
2021/10/12 01:58:04;;;;;;;6.75;3.47;;;;;;;;;;2098134;28;20242;-58
2021/10/12 01:59:04;;;;;;;5.00;3.55;;;;;;;;;;2097233;28;20171;-55
2021/10/12 02:00:06;;;;;;;6.95;3.17;;;;;;;;;;2091909;28;20710;-58
2021/10/12 02:01:17;;;;;;;4.82;3.40;;;;;;;;;;2097176;28;20174;-59
2021/10/12 02:02:17;;;;;;;7.53;3.20;;;;;;;;;;2098483;28;20174;-60
2021/10/12 02:03:17;;;;;;;6.53;3.45;;;;;;;;;;2086356;28;20202;-58
2021/10/12 02:04:18;;;;;;;3.85;3.22;;;;;;;;;;2088938;28;20667;-60
2021/10/12 02:05:18;;;;;;;5.18;3.58;;;;;;;;;;2097543;28;20186;-59
2021/10/12 02:06:18;;;;;;;4.65;2.90;;;;;;;;;;2095283;28;20672;-60
2021/10/12 02:07:19;;;;;;;6.72;3.35;;;;;;;;;;2097642;28;20189;-58
2021/10/12 02:08:19;;;;;;;5.75;3.47;;;;;;;;;;2097521;28;20250;-53
2021/10/12 02:09:19;;;;;;;4.45;3.13;;;;;;;;;;2097538;28;20246;-58
2021/10/12 02:10:20;;;;;;;6.57;3.75;;;;;;;;;;2098142;28;20252;-58
2021/10/12 02:11:20;;;;;;;6.05;3.58;;;;;;;;;;2089461;28;20217;-59
2021/10/12 02:12:20;;;;;;;7.07;3.13;;;;;;;;;;2088742;28;20683;-60
2021/10/12 02:13:20;;;;;;;4.93;3.13;;;;;;;;;;2101292;28;20171;-63
2021/10/12 02:14:21;;;;;;;6.68;3.58;;;;;;;;;;2098363;28;20179;-61
2021/10/12 02:15:21;;;;;;;8.75;2.80;;;;;;;;;;2088747;28;20259;-61
2021/10/12 02:16:22;;;;;;;6.13;3.63;;;;;;;;;;2089343;28;20176;-60
2021/10/12 02:17:22;;;;;;;3.67;2.97;;;;;;;;;;2098283;28;20163;-62
2021/10/12 02:18:22;;;;;;;5.82;3.42;;;;;;;;;;2098382;28;20232;-61
2021/10/12 02:19:22;;;;;;;5.43;3.35;;;;;;;;;;2098178;28;20236;-66
2021/10/12 02:20:23;;;;;;;5.45;3.20;;;;;;;;;;2098045;28;20293;-60
2021/10/12 02:21:23;;;;;;;4.55;3.10;;;;;;;;;;2089835;28;20172;-57
2021/10/12 02:22:23;;;;;;;5.95;3.20;;;;;;;;;;2089448;28;20558;-62
2021/10/12 02:23:25;;;;;;;6.32;3.05;;;;;;;;;;2089692;28;20206;-60
2021/10/12 02:24:25;;;;;;;6.53;3.65;;;;;;;;;;2089489;28;20214;-59
2021/10/12 02:25:26;;;;;;;4.93;3.40;;;;;;;;;;2098582;28;20180;-64
2021/10/12 02:26:26;;;;;;;4.60;3.28;;;;;;;;;;2098404;28;20178;-62
2021/10/12 02:27:26;;;;;;;4.13;3.05;;;;;;;;;;2098568;28;20655;-57
2021/10/12 02:28:27;;;;;;;3.55;2.85;;;;;;;;;;2098486;28;20194;-59
2021/10/12 02:29:27;;;;;;;4.97;3.72;;;;;;;;;;2098246;28;20289;-60
2021/10/12 02:30:27;;;;;;;6.50;3.47;;;;;;;;;;2089246;28;20190;-53
2021/10/12 02:31:28;;;;;;;4.82;3.22;;;;;;;;;;2089008;28;20535;-59
2021/10/12 02:32:28;;;;;;;5.82;3.67;;;;;;;;;;2098629;28;20171;-62
2021/10/12 02:33:28;;;;;;;8.73;3.88;;;;;;;;;;2089746;28;20187;-58
2021/10/12 02:34:29;;;;;;;8.00;4.00;;;;;;;;;;2089870;28;20168;-60
2021/10/12 02:35:29;;;;;;;5.20;3.35;;;;;;;;;;2098411;28;20171;-59
2021/10/12 02:36:30;;;;;;;6.13;3.67;;;;;;;;;;2098338;28;20179;-57
2021/10/12 02:37:30;;;;;;;5.13;3.60;;;;;;;;;;2089579;28;20176;-61
2021/10/12 02:38:30;;;;;;;5.55;3.60;;;;;;;;;;2089588;28;20171;-56
2021/10/12 02:39:31;;;;;;;5.55;3.97;;;;;;;;;;2093660;28;20174;-59
2021/10/12 02:40:31;;;;;;;6.93;4.00;;;;;;;;;;2097900;28;20211;-58
2021/10/12 02:41:31;;;;;;;5.95;3.75;;;;;;;;;;2097689;28;20682;-57
2021/10/12 02:42:31;;;;;;;4.45;3.33;;;;;;;;;;2097436;28;20650;-61
2021/10/12 02:43:32;;;;;;;8.45;4.10;;;;;;;;;;2098455;28;20260;-61
2021/10/12 02:44:32;;;;;;;5.68;4.10;;;;;;;;;;2097444;28;20658;-57
2021/10/12 02:45:32;;;;;;;5.35;3.85;;;;;;;;;;2091875;28;20210;-57
2021/10/12 02:46:33;;;;;;;8.68;3.53;;;;;;;;;;2096402;28;20171;-60
2021/10/12 02:47:34;;;;;;;4.70;3.47;;;;;;;;;;2097477;28;20166;-62
2021/10/12 02:48:34;;;;;;;3.88;3.53;;;;;;;;;;2097832;28;20225;-59
2021/10/12 02:49:34;;;;;;;4.25;3.85;;;;;;;;;;2097871;28;20199;-55
2021/10/12 02:50:35;;;;;;;5.25;3.60;;;;;;;;;;2097785;28;20205;-56
2021/10/12 02:51:35;;;;;;;6.38;4.10;;;;;;;;;;2097197;28;20171;-58
2021/10/12 02:52:35;;;;;;;6.40;3.50;;;;;;;;;;2097551;28;20192;-63
2021/10/12 02:53:35;;;;;;;7.65;3.60;;;;;;;;;;2097469;28;20171;-57
2021/10/12 02:54:36;;;;;;;5.15;3.42;;;;;;;;;;2097574;28;20171;-60
2021/10/12 02:55:36;;;;;;;5.03;3.75;;;;;;;;;;2098329;28;20175;-56
2021/10/12 02:56:36;;;;;;;9.15;3.63;;;;;;;;;;2098228;28;20182;-57
2021/10/12 02:57:37;;;;;;;4.55;3.95;;;;;;;;;;2089036;28;20565;-57
2021/10/12 02:58:37;;;;;;;5.80;3.20;;;;;;;;;;2097015;28;20163;-58
2021/10/12 02:59:37;;;;;;;5.10;4.10;;;;;;;;;;2095168;28;20199;-60
2021/10/12 03:00:37;;;;;;;4.93;3.40;;;;;;;;;;2096830;28;20567;-58
2021/10/12 03:01:38;;;;;;;4.40;3.65;;;;;;;;;;2087995;28;20225;-60
2021/10/12 03:02:38;;;;;;;4.55;4.10;;;;;;;;;;2080505;28;20192;-56
2021/10/12 03:03:38;;;;;;;7.65;3.90;;;;;;;;;;2088074;28;20194;-57
2021/10/12 03:04:39;;;;;;;5.78;3.83;;;;;;;;;;2097298;28;20177;-58
2021/10/12 03:05:43;;;;;;;7.72;3.80;;;;;;;;;;2095966;28;20269;-57
2021/10/12 03:06:43;;;;;;;5.47;3.92;;;;;;;;;;2097381;28;20218;-60
2021/10/12 03:07:44;;;;;;;11.25;4.60;;;;;;;;;;2097595;28;20179;-54
2021/10/12 03:08:44;;;;;;;6.65;3.95;;;;;;;;;;2086722;28;20225;-57
2021/10/12 03:09:44;;;;;;;9.48;4.40;;;;;;;;;;2088755;28;20657;-62
2021/10/12 03:10:44;;;;;;;6.60;3.92;;;;;;;;;;2097547;28;20218;-56
2021/10/12 03:11:45;;;;;;;5.47;3.90;;;;;;;;;;2088758;28;20176;-57
2021/10/12 03:12:45;;;;;;;10.23;4.15;;;;;;;;;;2089411;28;20555;-56
2021/10/12 03:13:45;;;;;;;9.07;4.68;;;;;;;;;;2089049;28;20168;-55
2021/10/12 03:14:45;;;;;;;8.60;4.18;;;;;;;;;;2088991;28;20749;-56
2021/10/12 03:15:46;;;;;;;7.97;3.83;;;;;;;;;;2097641;28;20262;-55
2021/10/12 03:16:46;;;;;;;5.80;4.15;;;;;;;;;;2097821;28;20274;-56
2021/10/12 03:17:46;;;;;;;9.82;3.92;;;;;;;;;;2093070;28;20226;-59
2021/10/12 03:18:46;;;;;;;10.40;4.03;;;;;;;;;;2097214;28;20190;-58
2021/10/12 03:19:47;;;;;;;10.23;4.72;;;;;;;;;;2097721;28;20221;-62
2021/10/12 03:20:47;;;;;;;5.15;4.00;;;;;;;;;;2092770;28;20199;-59
2021/10/12 03:21:58;;;;;;;6.95;4.38;;;;;;;;;;2097386;28;20187;-59
2021/10/12 03:22:58;;;;;;;7.50;4.00;;;;;;;;;;2093214;28;20190;-57
2021/10/12 03:23:58;;;;;;;8.27;4.25;;;;;;;;;;2088844;28;20211;-62
2021/10/12 03:24:58;;;;;;;4.28;3.83;;;;;;;;;;2090863;28;20177;-62
2021/10/12 03:25:59;;;;;;;8.02;4.15;;;;;;;;;;2099868;28;20170;-61
2021/10/12 03:26:59;;;;;;;8.20;4.35;;;;;;;;;;2094679;28;20614;-59
2021/10/12 03:27:59;;;;;;;7.10;4.80;;;;;;;;;;2100086;28;20288;-63
2021/10/12 03:28:59;;;;;;;5.40;3.97;;;;;;;;;;2096173;28;20206;-59
2021/10/12 03:29:59;;;;;;;5.78;4.30;;;;;;;;;;2091057;28;20245;-58
2021/10/12 03:31:00;;;;;;;8.23;4.72;;;;;;;;;;2097322;28;20216;-59
2021/10/12 03:32:00;;;;;;;6.88;4.60;;;;;;;;;;2097667;28;20173;-58
2021/10/12 03:33:00;;;;;;;9.52;4.53;;;;;;;;;;2097721;28;20182;-57
2021/10/12 03:34:00;;;;;;;11.35;4.43;;;;;;;;;;2097324;28;20167;-58
2021/10/12 03:35:01;;;;;;;10.52;5.15;;;;;;;;;;2097594;28;20252;-59
2021/10/12 03:36:11;;;;;;;8.80;4.68;;;;;;;;;;2095290;28;20214;-58
2021/10/12 03:37:11;;;;;;;8.57;4.18;;;;;;;;;;2088544;28;20203;-58
2021/10/12 03:38:12;;;;;;;5.68;3.88;;;;;;;;;;2079024;28;20185;-58
2021/10/12 03:39:12;;;;;;;5.40;4.20;;;;;;;;;;2080850;28;20173;-59
2021/10/12 03:40:12;;;;;;;10.38;4.40;;;;;;;;;;2093707;28;20209;-59
2021/10/12 03:41:12;;;;;;;6.57;4.03;;;;;;;;;;2088300;28;20164;-54
2021/10/12 03:42:13;;;;;;;8.45;4.25;;;;;;;;;;2088395;28;20175;-58
2021/10/12 03:43:13;;;;;;;10.05;4.97;;;;;;;;;;2096075;28;20175;-55
2021/10/12 03:44:13;;;;;;;5.25;4.05;;;;;;;;;;2099095;28;20167;-59
2021/10/12 03:45:14;;;;;;;9.73;4.30;;;;;;;;;;2101262;28;20738;-52
2021/10/12 03:46:14;;;;;;;10.05;4.53;;;;;;;;;;2100077;28;20273;-54
2021/10/12 03:47:14;;;;;;;9.50;4.15;;;;;;;;;;2099593;28;20179;-55
2021/10/12 03:48:15;;;;;;;9.50;5.00;;;;;;;;;;2100873;28;20179;-63
2021/10/12 03:49:15;;;;;;;14.82;5.13;;;;;;;;;;2090737;28;20199;-62
2021/10/12 03:50:15;;;;;;;8.15;5.15;;;;;;;;;;2085120;28;20216;-64
2021/10/12 03:51:15;;;;;;;9.70;4.65;;;;;;;;;;2094484;28;20167;-63
2021/10/12 03:52:16;;;;;;;8.50;4.53;;;;;;;;;;2083204;28;20190;-61
2021/10/12 03:53:16;;;;;;;8.45;5.05;;;;;;;;;;2091163;28;20175;-57
2021/10/12 03:54:16;;;;;;;9.00;4.80;;;;;;;;;;2095989;28;20191;-56
2021/10/12 03:55:16;;;;;;;5.50;4.70;;;;;;;;;;2089096;28;20603;-54
2021/10/12 03:56:17;;;;;;;9.85;4.60;;;;;;;;;;2079342;28;20236;-55
2021/10/12 03:57:17;;;;;;;8.82;4.53;;;;;;;;;;2088367;28;20171;-62
2021/10/12 03:58:17;;;;;;;10.38;4.95;;;;;;;;;;2096725;28;20170;-60
2021/10/12 03:59:17;;;;;;;11.57;5.75;;;;;;;;;;2089886;28;20187;-60
2021/10/12 04:00:18;;;;;;;8.55;4.47;;;;;;;;;;2086055;28;20192;-58
2021/10/12 04:01:18;;;;;;;10.48;5.07;;;;;;;;;;2087408;28;20175;-62
2021/10/12 04:02:18;;;;;;;9.15;4.70;;;;;;;;;;2085821;28;20187;-56
2021/10/12 04:03:18;;;;;;;9.85;4.72;;;;;;;;;;2097139;28;20251;-59
2021/10/12 04:04:19;;;;;;;11.43;4.63;;;;;;;;;;2097071;28;20231;-59
2021/10/12 04:05:19;;;;;;;7.15;5.32;;;;;;;;;;2097778;28;20186;-57
2021/10/12 04:06:19;;;;;;;12.38;5.00;;;;;;;;;;2089073;28;20217;-58
2021/10/12 04:07:20;;;;;;;9.75;4.65;;;;;;;;;;2088757;28;20176;-65
2021/10/12 04:08:20;;;;;;;12.35;5.20;;;;;;;;;;2097821;28;20258;-57
2021/10/12 04:09:20;;;;;;;5.63;4.43;;;;;;;;;;2096043;28;20244;-61
2021/10/12 04:10:20;;;;;;;12.07;4.78;;;;;;;;;;2096731;28;20906;-57
2021/10/12 04:11:22;;;;;;;9.88;4.40;;;;;;;;;;2097940;28;20545;-59
2021/10/12 04:12:22;;;;;;;13.32;4.32;;;;;;;;;;2095790;28;20651;-64
2021/10/12 04:13:22;;;;;;;13.68;4.82;;;;;;;;;;2097322;28;20289;-62
2021/10/12 04:14:23;;;;;;;10.40;4.32;;;;;;;;;;2097376;28;20181;-56
2021/10/12 04:15:24;;;;;;;6.82;4.53;;;;;;;;;;2097802;28;20193;-59
2021/10/12 04:16:24;;;;;;;9.68;4.38;;;;;;;;;;2097272;28;20189;-59
2021/10/12 04:17:24;;;;;;;10.07;4.45;;;;;;;;;;2088861;28;20183;-62
2021/10/12 04:18:24;;;;;;;6.55;4.38;;;;;;;;;;2080687;28;20664;-59
2021/10/12 04:19:25;;;;;;;12.20;4.97;;;;;;;;;;2086748;28;22327;-61
2021/10/12 04:20:26;;;;;;;6.35;4.72;;;;;;;;;;2087881;28;20237;-63
2021/10/12 04:21:27;;;;;;;15.45;4.32;;;;;;;;;;2087970;28;20254;-63
2021/10/12 04:22:27;;;;;;;9.60;5.22;;;;;;;;;;2094563;28;20170;-62
2021/10/12 04:23:27;;;;;;;8.85;5.25;;;;;;;;;;2088011;28;20235;-58
2021/10/12 04:24:28;;;;;;;8.52;4.82;;;;;;;;;;2085678;28;20275;-59
2021/10/12 04:25:28;;;;;;;8.80;3.90;;;;;;;;;;2096932;28;20248;-58
2021/10/12 04:26:28;;;;;;;7.40;4.00;;;;;;;;;;2097063;28;20193;-57
2021/10/12 04:27:28;;;;;;;8.73;4.10;;;;;;;;;;2096843;28;20171;-58
2021/10/12 04:28:29;;;;;;;7.35;5.05;;;;;;;;;;2097226;28;20171;-62
2021/10/12 04:29:29;;;;;;;12.07;4.88;;;;;;;;;;2096786;28;20195;-62
2021/10/12 04:30:29;;;;;;;8.30;4.63;;;;;;;;;;2096393;28;20440;-56
2021/10/12 04:31:30;;;;;;;11.52;5.07;;;;;;;;;;2097490;28;20721;-58
2021/10/12 04:32:30;;;;;;;11.13;4.85;;;;;;;;;;2097710;28;20167;-60
2021/10/12 04:33:31;;;;;;;7.60;4.80;;;;;;;;;;2095722;28;20659;-57
2021/10/12 04:34:31;;;;;;;10.63;4.85;;;;;;;;;;2092220;28;20211;-58
2021/10/12 04:35:31;;;;;;;9.02;4.80;;;;;;;;;;2094006;28;20175;-56
2021/10/12 04:36:31;;;;;;;8.93;5.05;;;;;;;;;;2095335;28;20182;-61
2021/10/12 04:37:32;;;;;;;10.32;5.45;;;;;;;;;;2096390;28;20242;-61
2021/10/12 04:38:32;;;;;;;8.90;4.50;;;;;;;;;;2088347;28;20254;-59
2021/10/12 04:39:32;;;;;;;7.43;4.70;;;;;;;;;;2088152;28;20187;-57
2021/10/12 04:40:33;;;;;;;9.20;4.88;;;;;;;;;;2087428;28;20245;-57
2021/10/12 04:41:33;;;;;;;10.73;4.95;;;;;;;;;;2088571;28;20172;-54
2021/10/12 04:42:34;;;;;;;13.35;5.18;;;;;;;;;;2096627;28;20189;-54
2021/10/12 04:43:35;;;;;;;8.95;4.97;;;;;;;;;;2096921;28;20186;-55
2021/10/12 04:44:35;;;;;;;13.52;4.78;;;;;;;;;;2096805;28;20293;-54
2021/10/12 04:45:39;;;;;;;11.25;4.85;;;;;;;;;;2096701;28;20219;-54
2021/10/12 04:46:39;;;;;;;8.52;4.70;;;;;;;;;;2097767;28;20183;-55
2021/10/12 04:47:39;;;;;;;8.48;4.70;;;;;;;;;;2097218;28;20202;-57
2021/10/12 04:48:40;;;;;;;8.40;4.50;;;;;;;;;;2088669;28;20179;-54
2021/10/12 04:49:40;;;;;;;7.10;4.43;;;;;;;;;;2088478;28;20318;-62
2021/10/12 04:50:40;;;;;;;10.00;5.13;;;;;;;;;;2088131;28;20191;-61
2021/10/12 04:51:41;;;;;;;14.57;5.53;;;;;;;;;;2084439;28;20176;-57
2021/10/12 04:52:43;;;;;;;6.35;4.70;;;;;;;;;;2095963;28;20218;-52
2021/10/12 04:53:43;;;;;;;12.68;5.30;;;;;;;;;;2092203;28;20182;-61
2021/10/12 04:54:43;;;;;;;7.97;4.70;;;;;;;;;;2096948;28;20178;-56
2021/10/12 04:55:43;;;;;;;9.30;4.78;;;;;;;;;;2098437;28;20163;-58
2021/10/12 04:56:44;;;;;;;7.88;4.95;;;;;;;;;;2098408;28;20171;-59
2021/10/12 04:57:44;;;;;;;8.02;4.90;;;;;;;;;;2089467;28;20255;-54
2021/10/12 04:58:44;;;;;;;9.88;4.65;;;;;;;;;;2090155;28;20560;-55
2021/10/12 04:59:44;;;;;;;10.00;4.68;;;;;;;;;;2099250;28;20185;-55
2021/10/12 05:00:45;;;;;;;10.70;5.03;;;;;;;;;;2097913;28;20213;-57
2021/10/12 05:01:45;;;;;;;7.13;4.40;;;;;;;;;;2099063;28;20170;-59
2021/10/12 05:02:45;;;;;;;8.52;5.07;;;;;;;;;;2098375;28;20199;-57
2021/10/12 05:03:45;;;;;;;8.52;4.65;;;;;;;;;;2098814;28;20718;-63
2021/10/12 05:04:46;;;;;;;8.80;5.00;;;;;;;;;;2098197;28;20175;-58
2021/10/12 05:05:46;;;;;;;8.88;4.70;;;;;;;;;;2098658;28;20236;-55
2021/10/12 05:06:47;;;;;;;7.22;4.95;;;;;;;;;;2096554;28;20181;-60
2021/10/12 05:07:47;;;;;;;13.65;5.07;;;;;;;;;;2097857;28;20171;-62
2021/10/12 05:08:48;;;;;;;11.93;4.40;;;;;;;;;;2095826;28;20183;-61
2021/10/12 05:09:48;;;;;;;8.13;4.18;;;;;;;;;;2091598;28;20285;-65
2021/10/12 05:10:48;;;;;;;9.15;4.93;;;;;;;;;;2119784;22;20217;-53
2021/10/12 05:11:49;;;;;;;7.18;4.45;;;;;;;;;;2088043;28;20316;-50
2021/10/12 05:12:49;;;;;;;6.93;3.97;;;;;;;;;;2089452;28;20258;-52
2021/10/12 05:13:50;;;;;;;8.13;4.50;;;;;;;;;;2088053;28;20172;-51
2021/10/12 05:14:51;;;;;;;7.15;4.80;;;;;;;;;;2089098;28;20163;-51
2021/10/12 05:15:52;;;;;;;8.02;4.90;;;;;;;;;;2091581;28;20654;-52
2021/10/12 05:16:55;;;;;;;11.70;4.78;;;;;;;;;;2090176;28;20604;-52
2021/10/12 05:17:56;;;;;;;8.52;4.63;;;;;;;;;;2091098;28;20538;-50
2021/10/12 05:18:59;;;;;;;10.50;4.70;;;;;;;;;;2090638;28;20186;-53
2021/10/12 05:19:59;;;;;;;11.57;5.13;;;;;;;;;;2090314;28;20243;-54
2021/10/12 05:20:59;;;;;;;9.82;4.90;;;;;;;;;;2088327;28;20249;-52
2021/10/12 05:22:00;;;;;;;8.90;4.35;;;;;;;;;;2090342;28;20683;-50
2021/10/12 05:23:00;;;;;;;9.82;4.88;;;;;;;;;;2089987;28;20258;-52
2021/10/12 05:24:01;;;;;;;13.30;4.88;;;;;;;;;;2084613;28;20212;-50
2021/10/12 05:25:01;;;;;;;8.52;4.82;;;;;;;;;;2085867;28;20292;-53
2021/10/12 05:26:01;;;;;;;8.43;4.47;;;;;;;;;;2090886;28;20174;-53
2021/10/12 05:27:02;;;;;;;9.02;4.82;;;;;;;;;;2088140;28;20206;-54
2021/10/12 05:28:02;;;;;;;7.05;4.55;;;;;;;;;;2091719;28;20840;-52
2021/10/12 05:29:03;;;;;;;9.10;5.15;;;;;;;;;;2089205;28;20178;-50
2021/10/12 05:30:04;;;;;;;8.57;4.80;;;;;;;;;;2091971;28;20160;-51
2021/10/12 05:31:04;;;;;;;11.68;4.65;;;;;;;;;;2090406;28;20247;-54
2021/10/12 05:32:05;;;;;;;7.75;4.68;;;;;;;;;;2091984;28;20180;-55
2021/10/12 05:33:11;;;;;;;9.30;5.13;;;;;;;;;;2092075;28;20200;-56
2021/10/12 05:34:11;;;;;;;12.02;5.38;;;;;;;;;;2094711;28;20194;-55
2021/10/12 05:35:12;;;;;;;8.55;4.55;;;;;;;;;;2094112;28;20180;-55
2021/10/12 05:36:12;;;;;;;9.15;4.78;;;;;;;;;;2092363;28;20203;-56
2021/10/12 05:37:12;;;;;;;6.95;4.32;;;;;;;;;;2090398;28;20160;-57
2021/10/12 05:38:13;;;;;;;8.20;4.82;;;;;;;;;;2088910;28;20180;-56
2021/10/12 05:39:14;;;;;;;5.57;4.53;;;;;;;;;;2089331;28;20227;-57
2021/10/12 05:40:14;;;;;;;6.05;4.40;;;;;;;;;;2088503;28;20237;-56
2021/10/12 05:41:14;;;;;;;10.48;4.50;;;;;;;;;;2088557;28;20251;-54
2021/10/12 05:42:15;;;;;;;9.75;5.18;;;;;;;;;;2085427;28;20184;-56
2021/10/12 05:43:15;;;;;;;10.60;4.35;;;;;;;;;;2084936;28;20168;-56
2021/10/12 05:44:16;;;;;;;13.00;4.90;;;;;;;;;;2084426;28;20230;-54
2021/10/12 05:45:16;;;;;;;8.93;4.93;;;;;;;;;;2080975;28;20172;-55
2021/10/12 05:46:18;;;;;;;6.88;4.05;;;;;;;;;;2079258;28;20169;-55
2021/10/12 05:47:18;;;;;;;6.35;4.28;;;;;;;;;;2085488;28;20176;-56
2021/10/12 05:48:18;;;;;;;9.65;4.10;;;;;;;;;;2090677;28;20168;-55
2021/10/12 05:49:19;;;;;;;6.30;4.00;;;;;;;;;;2087903;28;20281;-56
2021/10/12 05:50:19;;;;;;;7.68;3.97;;;;;;;;;;2087577;28;20556;-57
2021/10/12 05:51:22;;;;;;;4.57;4.07;;;;;;;;;;2080076;28;20286;-53
2021/10/12 05:52:24;;;;;;;7.57;4.53;;;;;;;;;;2081202;28;20679;-55
2021/10/12 05:53:31;;;;;;;6.57;3.85;;;;;;;;;;2087892;28;20163;-54
2021/10/12 05:54:34;;;;;;;5.65;4.03;;;;;;;;;;2088378;28;20172;-56
2021/10/12 05:55:49;;;;;;;7.18;4.32;;;;;;;;;;2085530;28;20840;-58
2021/10/12 05:57:19;;;;;;;8.05;5.03;;;;;;;;;;2089695;28;20162;-57
2021/10/12 05:58:12;;;;;;;8.35;4.75;;;;;;;;;;2089072;28;20184;-57
2021/10/12 05:59:13;;;;;;;8.73;4.63;;;;;;;;;;2086187;28;20803;-55
2021/10/12 06:00:13;;;;;;;10.80;4.50;;;;;;;;;;2085432;28;20172;-55
2021/10/12 06:01:13;;;;;;;11.18;4.90;;;;;;;;;;2088585;28;20202;-51
2021/10/12 06:02:13;;;;;;;13.80;4.70;;;;;;;;;;2077650;28;20161;-51
2021/10/12 06:03:14;;;;;;;9.50;4.70;;;;;;;;;;2078567;28;20180;-54